Time;durP1;ratioP1;P1;durP2;ratioP2;P2;SDS_P1;SDS_P2;PMS_P1;PMS_P2;Temp;Humidity;BMP_temperature;BMP_pressure;BME280_temperature;BME280_humidity;BME280_pressure;Samples;Min_cycle;Max_cycle;Signal;HPM_P1;HPM_P2
2021/11/29 00:01:46;;;;;;;29.63;14.88;;;-2.50;99.90;;;;;;5074051;28;20017;-74
2021/11/29 00:04:12;;;;;;;26.20;13.80;;;-2.40;99.90;;;;;;5074830;28;20021;-74
2021/11/29 00:06:38;;;;;;;38.10;16.90;;;-2.40;99.90;;;;;;5074006;28;20518;-74
2021/11/29 00:09:04;;;;;;;29.35;14.35;;;-2.50;99.90;;;;;;5074453;28;20020;-75
2021/11/29 00:11:29;;;;;;;29.27;15.15;;;-2.50;99.90;;;;;;5074451;28;20064;-74
2021/11/29 00:13:55;;;;;;;31.60;15.55;;;-2.50;99.90;;;;;;5065007;28;20025;-75
2021/11/29 00:16:20;;;;;;;38.40;16.27;;;-2.50;99.90;;;;;;5054319;28;20503;-74
2021/11/29 00:18:46;;;;;;;31.38;13.05;;;-2.40;99.90;;;;;;5054318;28;20490;-74
2021/11/29 00:21:13;;;;;;;34.70;14.85;;;-2.40;99.90;;;;;;5069146;28;20028;-74
2021/11/29 00:23:39;;;;;;;30.67;14.52;;;-2.30;99.90;;;;;;5054081;28;20449;-74
2021/11/29 00:26:04;;;;;;;27.48;13.68;;;-2.20;99.90;;;;;;5054484;28;20060;-74
2021/11/29 00:28:30;;;;;;;33.13;15.48;;;-2.20;99.90;;;;;;5055814;28;20033;-74
2021/11/29 00:30:56;;;;;;;28.98;14.02;;;-2.20;99.90;;;;;;5069388;28;20116;-74
2021/11/29 00:33:22;;;;;;;27.23;13.50;;;-2.20;99.90;;;;;;5053956;28;20033;-74
2021/11/29 00:35:48;;;;;;;34.50;15.07;;;-2.20;99.90;;;;;;5067831;28;20028;-74
2021/11/29 00:38:13;;;;;;;31.52;15.13;;;-2.20;99.90;;;;;;5072691;28;20373;-74
2021/11/29 00:40:40;;;;;;;39.38;17.98;;;-2.10;99.90;;;;;;5072096;28;20021;-74
2021/11/29 00:43:06;;;;;;;48.53;19.98;;;-1.90;99.90;;;;;;5073214;28;20028;-74
2021/11/29 00:45:32;;;;;;;51.15;19.80;;;-1.50;99.90;;;;;;5059882;28;20400;-74
2021/11/29 00:47:58;;;;;;;51.80;20.35;;;-1.20;99.90;;;;;;5054020;28;20480;-74
2021/11/29 00:50:23;;;;;;;50.83;22.08;;;-0.90;99.90;;;;;;5072343;28;20039;-74
2021/11/29 00:52:49;;;;;;;53.95;22.33;;;-0.60;99.90;;;;;;5073137;28;20040;-74
2021/11/29 00:55:17;;;;;;;52.63;22.15;;;-0.40;99.90;;;;;;5072849;28;20522;-74
2021/11/29 00:57:43;;;;;;;49.28;22.15;;;-0.30;99.90;;;;;;5068992;28;20025;-74
2021/11/29 01:00:14;;;;;;;58.92;22.83;;;-0.20;99.90;;;;;;5053576;28;20370;-74
2021/11/29 01:02:39;;;;;;;57.08;22.70;;;-0.10;99.90;;;;;;5054066;28;20068;-74
2021/11/29 01:05:07;;;;;;;49.55;20.42;;;-0.10;99.90;;;;;;5052859;28;20060;-75
2021/11/29 01:07:33;;;;;;;59.92;22.42;;;-0.10;99.90;;;;;;5068889;28;20481;-75
2021/11/29 01:09:58;;;;;;;49.15;21.27;;;0.00;99.90;;;;;;5053425;28;20021;-74
2021/11/29 01:12:24;;;;;;;43.60;19.40;;;0.00;99.90;;;;;;5065583;28;20064;-75
2021/11/29 01:14:50;;;;;;;45.45;17.80;;;0.10;99.90;;;;;;5069432;28;20037;-75
2021/11/29 01:17:15;;;;;;;51.13;21.70;;;0.00;99.90;;;;;;5067976;28;20025;-75
2021/11/29 01:19:41;;;;;;;55.63;22.52;;;0.10;99.90;;;;;;5053284;28;20021;-75
2021/11/29 01:22:07;;;;;;;56.00;23.83;;;0.30;99.90;;;;;;5052569;28;20025;-74
2021/11/29 01:24:32;;;;;;;66.75;24.92;;;0.30;99.90;;;;;;5073122;28;20013;-74
2021/11/29 01:26:58;;;;;;;51.85;23.17;;;0.40;99.90;;;;;;5073509;28;20078;-75
2021/11/29 01:29:24;;;;;;;49.70;22.10;;;0.40;99.90;;;;;;5073169;28;20029;-75
2021/11/29 01:31:49;;;;;;;48.67;21.45;;;0.30;99.90;;;;;;5071357;28;20157;-75
2021/11/29 01:34:16;;;;;;;42.55;20.75;;;0.40;99.90;;;;;;5071818;28;20052;-75
2021/11/29 01:36:42;;;;;;;54.20;22.60;;;0.40;99.90;;;;;;5073078;28;20107;-75
2021/11/29 01:39:08;;;;;;;50.28;22.48;;;0.40;99.90;;;;;;5073546;28;20105;-75
2021/11/29 01:41:35;;;;;;;46.42;21.45;;;0.50;99.90;;;;;;5073193;28;20032;-75
2021/11/29 01:44:00;;;;;;;48.90;20.65;;;0.60;99.90;;;;;;5073234;28;20116;-75
2021/11/29 01:46:26;;;;;;;52.00;22.45;;;0.60;99.90;;;;;;5071260;28;20123;-75
2021/11/29 01:48:52;;;;;;;46.85;22.25;;;0.60;99.90;;;;;;5071781;28;20119;-75
2021/11/29 01:51:17;;;;;;;46.17;22.45;;;0.60;99.90;;;;;;5073009;28;20100;-75
2021/11/29 01:53:44;;;;;;;40.30;19.48;;;0.50;99.90;;;;;;5072937;28;20039;-75
2021/11/29 01:56:10;;;;;;;45.15;20.27;;;0.50;99.90;;;;;;5072319;28;20029;-75
2021/11/29 01:58:39;;;;;;;42.28;20.02;;;0.50;99.90;;;;;;5071684;28;20052;-75
2021/11/29 02:01:08;;;;;;;49.67;21.30;;;0.50;99.90;;;;;;5073175;28;20472;-75
2021/11/29 02:03:34;;;;;;;48.08;22.08;;;0.50;99.90;;;;;;5072823;28;20031;-75
2021/11/29 02:06:01;;;;;;;53.50;21.80;;;0.70;99.90;;;;;;5076552;28;20472;-75
2021/11/29 02:08:26;;;;;;;52.17;23.95;;;0.70;99.90;;;;;;5076513;28;20507;-75
2021/11/29 02:10:52;;;;;;;54.05;24.13;;;0.70;99.90;;;;;;5076784;28;20025;-75
2021/11/29 02:13:20;;;;;;;58.10;24.52;;;0.80;99.90;;;;;;5075298;28;20032;-75
2021/11/29 02:15:51;;;;;;;44.22;21.23;;;0.90;99.90;;;;;;5076846;28;20028;-74
2021/11/29 02:18:21;;;;;;;47.08;21.73;;;0.90;99.90;;;;;;5076676;28;20025;-75
2021/11/29 02:21:05;;;;;;;47.03;21.98;;;0.90;99.90;;;;;;5076041;28;20024;-75
2021/11/29 02:23:33;;;;;;;50.33;22.25;;;0.80;99.90;;;;;;5076715;28;20021;-75
2021/11/29 02:25:59;;;;;;;44.90;20.70;;;0.90;99.90;;;;;;5075165;28;20503;-75
2021/11/29 02:28:25;;;;;;;48.55;22.25;;;0.90;99.90;;;;;;5076708;28;20032;-74
2021/11/29 02:30:50;;;;;;;48.97;22.30;;;0.90;99.90;;;;;;5075825;28;20021;-75
2021/11/29 02:33:16;;;;;;;50.90;24.50;;;1.00;99.90;;;;;;5076550;28;20024;-75
2021/11/29 02:35:42;;;;;;;48.63;21.60;;;1.00;99.90;;;;;;5074961;28;20032;-75
2021/11/29 02:38:07;;;;;;;50.05;22.20;;;1.00;99.90;;;;;;5076522;28;20021;-75
2021/11/29 02:40:34;;;;;;;48.78;21.92;;;1.00;99.90;;;;;;5074330;28;20104;-75
2021/11/29 02:43:00;;;;;;;50.10;22.55;;;1.00;99.90;;;;;;5076359;28;20029;-75
2021/11/29 02:45:26;;;;;;;52.42;23.48;;;1.10;99.90;;;;;;5076022;28;20030;-75
2021/11/29 02:47:52;;;;;;;49.50;23.38;;;1.10;99.90;;;;;;5074277;28;20115;-75
2021/11/29 02:50:17;;;;;;;46.20;22.38;;;1.10;99.90;;;;;;5076027;28;20451;-75
2021/11/29 02:52:43;;;;;;;46.30;22.58;;;1.10;99.90;;;;;;5075911;28;20024;-75
2021/11/29 02:55:10;;;;;;;46.95;22.08;;;1.10;99.90;;;;;;5075852;28;20024;-75
2021/11/29 02:57:35;;;;;;;48.15;21.13;;;1.10;99.90;;;;;;5076103;28;20063;-75
2021/11/29 03:00:03;;;;;;;43.28;21.88;;;1.10;99.90;;;;;;5075498;28;20025;-75
2021/11/29 03:02:31;;;;;;;49.92;23.83;;;1.10;99.90;;;;;;5076093;28;20035;-75
2021/11/29 03:04:58;;;;;;;55.75;22.98;;;1.20;99.90;;;;;;5063760;28;20031;-75
2021/11/29 03:07:24;;;;;;;43.42;21.50;;;1.30;99.90;;;;;;5065815;28;20064;-75
2021/11/29 03:09:50;;;;;;;49.67;22.60;;;1.30;99.90;;;;;;5074386;28;20032;-75
2021/11/29 03:12:16;;;;;;;65.70;23.23;;;1.30;99.90;;;;;;5073092;28;20025;-75
2021/11/29 03:14:42;;;;;;;48.28;22.95;;;1.30;99.90;;;;;;5055397;28;20033;-75
2021/11/29 03:17:08;;;;;;;46.20;21.70;;;1.30;99.90;;;;;;5054990;28;20025;-75
2021/11/29 03:19:36;;;;;;;47.55;24.00;;;1.40;99.90;;;;;;5056570;28;20029;-76
2021/11/29 03:22:05;;;;;;;45.67;21.92;;;1.40;99.90;;;;;;5055050;28;20472;-75
2021/11/29 03:24:30;;;;;;;50.45;23.05;;;1.40;99.90;;;;;;5061081;28;20036;-76
2021/11/29 03:26:56;;;;;;;55.53;23.70;;;1.40;99.90;;;;;;5070786;28;20029;-75
2021/11/29 03:29:23;;;;;;;47.35;22.23;;;1.40;99.90;;;;;;5070026;28;20036;-75
2021/11/29 03:31:52;;;;;;;50.08;22.40;;;1.40;99.90;;;;;;5055245;28;20393;-75
2021/11/29 03:34:20;;;;;;;62.00;23.27;;;1.30;99.90;;;;;;5056546;28;20074;-75
2021/11/29 03:36:48;;;;;;;44.67;23.00;;;1.30;99.90;;;;;;5055007;28;20119;-75
2021/11/29 03:39:18;;;;;;;49.45;22.48;;;1.30;99.90;;;;;;5055280;28;20123;-75
2021/11/29 03:41:45;;;;;;;41.28;20.02;;;1.40;99.90;;;;;;5057394;28;20029;-75
2021/11/29 03:44:12;;;;;;;46.90;22.33;;;1.40;99.90;;;;;;5055350;28;20039;-75
2021/11/29 03:46:38;;;;;;;47.55;21.73;;;1.40;99.90;;;;;;5067494;28;20037;-75
2021/11/29 03:49:04;;;;;;;39.80;20.02;;;1.40;99.90;;;;;;5073147;28;20440;-75
2021/11/29 03:51:30;;;;;;;44.63;22.70;;;1.50;99.90;;;;;;5064442;28;20392;-76
2021/11/29 03:53:55;;;;;;;45.17;22.13;;;1.50;99.90;;;;;;5054793;28;20025;-75
2021/11/29 03:56:21;;;;;;;45.55;21.55;;;1.50;99.90;;;;;;5056850;28;20025;-75
2021/11/29 03:58:47;;;;;;;41.97;20.08;;;1.40;99.90;;;;;;5054254;28;20028;-75
2021/11/29 04:01:13;;;;;;;44.30;20.45;;;1.40;99.90;;;;;;5054337;28;20028;-75
2021/11/29 04:03:39;;;;;;;50.67;21.02;;;1.50;99.90;;;;;;5067212;28;20108;-76
2021/11/29 04:06:05;;;;;;;48.97;22.45;;;1.50;99.90;;;;;;5054621;28;20148;-75
2021/11/29 04:08:30;;;;;;;47.30;22.02;;;1.50;99.90;;;;;;5056951;28;20020;-76
2021/11/29 04:10:56;;;;;;;45.92;19.30;;;1.40;99.90;;;;;;5054154;28;20059;-75
2021/11/29 04:13:22;;;;;;;47.83;21.02;;;1.50;99.90;;;;;;5054345;28;20462;-75
2021/11/29 04:15:47;;;;;;;50.25;22.33;;;1.60;99.90;;;;;;5056665;28;20037;-75
2021/11/29 04:18:13;;;;;;;48.45;22.38;;;1.50;99.90;;;;;;5054350;28;20020;-75
2021/11/29 04:20:39;;;;;;;51.50;22.77;;;1.50;99.90;;;;;;5069619;28;20017;-75
2021/11/29 04:23:04;;;;;;;44.95;19.50;;;1.50;99.90;;;;;;5054372;28;20028;-75
2021/11/29 04:25:39;;;;;;;46.70;20.45;;;1.60;99.90;;;;;;5069237;28;20388;-75
2021/11/29 04:28:05;;;;;;;45.13;21.48;;;1.60;99.90;;;;;;5072801;28;20033;-75
2021/11/29 04:30:31;;;;;;;47.35;20.60;;;1.60;99.90;;;;;;5061258;28;20017;-75
2021/11/29 04:32:57;;;;;;;41.67;19.75;;;1.60;99.90;;;;;;5052409;28;20155;-75
2021/11/29 04:35:25;;;;;;;38.42;17.83;;;1.50;99.90;;;;;;5059921;28;20029;-75
2021/11/29 04:37:51;;;;;;;41.08;19.63;;;1.50;99.90;;;;;;5056222;28;20025;-75
2021/11/29 04:40:16;;;;;;;43.50;19.85;;;1.40;99.90;;;;;;5069306;28;20388;-75
2021/11/29 04:42:42;;;;;;;39.75;19.15;;;1.40;99.90;;;;;;5056027;28;20025;-75
2021/11/29 04:45:08;;;;;;;38.65;17.95;;;1.30;99.90;;;;;;5053897;28;20021;-75
2021/11/29 04:47:34;;;;;;;41.55;19.38;;;1.30;99.90;;;;;;5055417;28;20057;-75
2021/11/29 04:50:00;;;;;;;39.85;18.55;;;1.40;99.90;;;;;;5068318;28;20515;-75
2021/11/29 04:52:26;;;;;;;47.35;18.88;;;1.50;99.90;;;;;;5053749;28;20025;-75
2021/11/29 04:54:52;;;;;;;41.42;19.40;;;1.60;99.90;;;;;;5055860;28;20083;-75
2021/11/29 04:57:18;;;;;;;41.42;18.63;;;1.60;99.90;;;;;;5053598;28;20025;-75
2021/11/29 04:59:44;;;;;;;34.35;17.45;;;1.60;99.90;;;;;;5054774;28;20052;-75
2021/11/29 05:02:10;;;;;;;33.65;17.70;;;1.70;99.90;;;;;;5053958;28;20029;-76
2021/11/29 05:04:35;;;;;;;40.28;18.63;;;1.70;99.90;;;;;;5059507;28;20025;-75
2021/11/29 05:07:01;;;;;;;31.02;17.20;;;1.70;99.90;;;;;;5053450;28;20033;-75
2021/11/29 05:09:26;;;;;;;35.58;16.40;;;1.70;99.90;;;;;;5068068;28;20059;-76
2021/11/29 05:11:52;;;;;;;37.33;18.58;;;1.70;99.90;;;;;;5053692;28;20025;-75
2021/11/29 05:14:18;;;;;;;39.58;17.90;;;1.70;99.90;;;;;;5080758;23;20079;-68
2021/11/29 05:16:44;;;;;;;32.05;16.55;;;1.70;99.90;;;;;;5073711;28;20028;-68
2021/11/29 05:19:10;;;;;;;39.80;17.75;;;1.80;99.90;;;;;;5067580;28;20048;-69
2021/11/29 05:21:36;;;;;;;35.35;17.67;;;1.80;99.90;;;;;;5053530;28;20029;-68
2021/11/29 05:24:03;;;;;;;41.08;20.42;;;1.80;99.90;;;;;;5053112;28;20047;-68
2021/11/29 05:26:29;;;;;;;40.22;19.48;;;1.80;99.90;;;;;;5053122;28;20029;-68
2021/11/29 05:28:57;;;;;;;42.67;19.35;;;1.80;99.90;;;;;;5052832;28;20044;-68
2021/11/29 05:31:23;;;;;;;44.33;21.00;;;1.80;99.90;;;;;;5054385;28;20045;-68
2021/11/29 05:33:49;;;;;;;35.75;19.15;;;1.80;99.90;;;;;;5052978;28;20480;-68
2021/11/29 05:36:16;;;;;;;41.05;19.15;;;1.80;99.90;;;;;;5054720;28;20509;-68
2021/11/29 05:38:42;;;;;;;39.10;19.63;;;1.80;99.90;;;;;;5053190;28;20017;-69
2021/11/29 05:41:08;;;;;;;38.72;19.55;;;1.80;99.90;;;;;;5055260;28;20074;-68
2021/11/29 05:43:33;;;;;;;41.35;19.05;;;1.70;99.90;;;;;;5052964;28;20083;-69
2021/11/29 05:46:00;;;;;;;38.10;19.23;;;1.60;99.90;;;;;;5068246;28;20037;-69
2021/11/29 05:48:28;;;;;;;36.90;19.60;;;1.50;99.90;;;;;;5071750;28;20030;-69
2021/11/29 05:50:53;;;;;;;38.05;18.25;;;1.50;99.90;;;;;;5067929;28;20480;-68
2021/11/29 05:53:19;;;;;;;36.53;19.58;;;1.40;99.90;;;;;;5073277;28;20044;-69
2021/11/29 05:55:45;;;;;;;38.30;18.95;;;1.40;99.90;;;;;;5070676;28;20037;-68
2021/11/29 05:58:11;;;;;;;31.23;17.35;;;1.50;99.90;;;;;;5060952;28;20029;-68
2021/11/29 06:00:36;;;;;;;35.17;18.85;;;1.50;99.90;;;;;;5062087;28;20073;-68
2021/11/29 06:03:03;;;;;;;36.88;17.25;;;1.50;99.90;;;;;;5071160;28;20089;-68
2021/11/29 06:05:29;;;;;;;31.38;16.77;;;1.60;99.90;;;;;;5070724;28;20017;-69
2021/11/29 06:07:55;;;;;;;40.65;18.48;;;1.60;99.90;;;;;;5072830;28;20029;-68
2021/11/29 06:10:21;;;;;;;33.90;17.60;;;1.70;99.90;;;;;;5057636;28;20029;-68
2021/11/29 06:12:46;;;;;;;35.40;19.00;;;1.80;99.90;;;;;;5053020;28;20032;-68
2021/11/29 06:15:13;;;;;;;33.28;18.95;;;1.80;99.90;;;;;;5060011;28;20024;-68
2021/11/29 06:17:39;;;;;;;32.72;18.30;;;1.90;99.90;;;;;;5072746;28;20035;-68
2021/11/29 06:20:06;;;;;;;37.03;19.95;;;1.90;99.90;;;;;;5068642;28;20482;-68
2021/11/29 06:22:33;;;;;;;39.08;19.73;;;2.00;99.90;;;;;;5052638;28;20095;-68
2021/11/29 06:24:59;;;;;;;32.47;18.63;;;2.10;99.90;;;;;;5052604;28;20021;-68
2021/11/29 06:27:24;;;;;;;36.60;19.10;;;2.10;99.90;;;;;;5069933;28;20105;-69
2021/11/29 06:29:50;;;;;;;28.00;16.83;;;2.20;99.90;;;;;;5072621;28;20029;-69
2021/11/29 06:32:16;;;;;;;27.52;16.77;;;2.20;99.90;;;;;;5059168;28;20103;-68
2021/11/29 06:34:42;;;;;;;28.77;16.65;;;2.10;99.90;;;;;;5052495;28;20025;-69
2021/11/29 06:37:09;;;;;;;26.85;14.88;;;2.10;99.90;;;;;;5055224;28;20033;-68
2021/11/29 06:39:35;;;;;;;28.45;16.33;;;2.00;99.90;;;;;;5072535;28;20025;-69
2021/11/29 06:42:01;;;;;;;29.10;15.30;;;1.90;99.90;;;;;;5072526;28;20024;-69
2021/11/29 06:44:27;;;;;;;26.63;14.70;;;1.70;99.90;;;;;;5055907;28;20028;-69
2021/11/29 06:46:53;;;;;;;23.02;14.25;;;1.70;99.90;;;;;;5052444;28;20388;-68
2021/11/29 06:49:18;;;;;;;27.45;13.35;;;1.70;99.90;;;;;;5061781;28;20025;-68
2021/11/29 06:51:44;;;;;;;29.73;15.52;;;1.60;99.90;;;;;;5071147;28;20029;-68
2021/11/29 06:54:10;;;;;;;23.80;13.25;;;1.60;99.90;;;;;;5075950;28;20539;-68
2021/11/29 06:56:35;;;;;;;22.38;13.80;;;1.60;99.90;;;;;;5073660;28;20154;-69
2021/11/29 06:59:01;;;;;;;22.95;13.18;;;1.70;99.90;;;;;;5076469;28;20021;-69
2021/11/29 07:01:27;;;;;;;25.67;13.98;;;1.80;99.90;;;;;;5069666;28;20051;-69
2021/11/29 07:03:52;;;;;;;28.25;13.27;;;1.80;99.90;;;;;;5064225;28;20062;-68
2021/11/29 07:06:18;;;;;;;28.55;13.05;;;1.80;99.90;;;;;;5070473;28;20028;-67
2021/11/29 07:08:43;;;;;;;19.17;11.43;;;1.80;99.90;;;;;;5059029;28;20056;-69
2021/11/29 07:11:09;;;;;;;17.08;10.95;;;1.80;99.90;;;;;;5055662;28;20032;-68
2021/11/29 07:13:36;;;;;;;18.80;10.70;;;1.70;99.90;;;;;;5064693;28;20111;-69
2021/11/29 07:16:02;;;;;;;18.23;10.77;;;1.70;99.90;;;;;;5075305;28;20079;-69
2021/11/29 07:18:28;;;;;;;14.10;9.93;;;1.60;99.90;;;;;;5071354;28;20020;-69
2021/11/29 07:20:55;;;;;;;16.63;9.70;;;1.60;99.90;;;;;;5075492;28;20499;-68
2021/11/29 07:23:21;;;;;;;16.27;10.50;;;1.40;99.90;;;;;;5075475;28;20446;-69
2021/11/29 07:25:46;;;;;;;19.90;11.90;;;1.50;99.90;;;;;;5072627;28;20096;-68
2021/11/29 07:28:12;;;;;;;16.52;10.95;;;1.60;99.90;;;;;;5054780;28;20025;-69
2021/11/29 07:30:38;;;;;;;22.33;11.35;;;1.40;99.90;;;;;;5055293;28;20028;-69
2021/11/29 07:33:04;;;;;;;20.38;10.68;;;1.40;99.90;;;;;;5055527;28;20036;-69
2021/11/29 07:35:30;;;;;;;19.27;11.65;;;1.40;99.90;;;;;;5055097;28;20029;-69
2021/11/29 07:37:56;;;;;;;16.92;10.93;;;1.40;99.90;;;;;;5055165;28;20055;-69
2021/11/29 07:40:28;;;;;;;20.30;10.95;;;1.30;99.90;;;;;;5054617;28;20053;-66
2021/11/29 07:42:56;;;;;;;16.98;9.98;;;1.20;99.90;;;;;;5055410;28;20028;-66
2021/11/29 07:45:21;;;;;;;16.23;9.70;;;1.10;99.90;;;;;;5054940;28;20017;-68
2021/11/29 07:47:47;;;;;;;16.85;11.02;;;1.00;99.90;;;;;;5055203;28;20028;-69
2021/11/29 07:50:15;;;;;;;14.93;8.68;;;1.00;99.90;;;;;;5055232;28;20365;-69
2021/11/29 07:52:42;;;;;;;14.40;8.70;;;1.00;99.90;;;;;;5054315;28;20492;-69
2021/11/29 07:55:11;;;;;;;10.50;7.60;;;1.20;99.90;;;;;;5055051;28;20033;-69
2021/11/29 07:57:38;;;;;;;14.75;6.97;;;1.40;99.90;;;;;;5054703;28;20028;-69
2021/11/29 08:00:07;;;;;;;10.52;6.22;;;1.50;99.90;;;;;;5053483;28;20025;-69
2021/11/29 08:02:33;;;;;;;14.43;6.13;;;1.60;99.90;;;;;;5053508;28;20032;-69
2021/11/29 08:04:59;;;;;;;12.63;5.00;;;1.70;99.90;;;;;;5054544;28;20033;-69
2021/11/29 08:07:25;;;;;;;6.70;4.80;;;1.80;99.90;;;;;;5054877;28;20487;-69
2021/11/29 08:09:51;;;;;;;10.30;5.03;;;1.90;99.90;;;;;;5054562;28;20029;-67
2021/11/29 08:12:16;;;;;;;9.02;5.25;;;2.00;99.90;;;;;;5053970;28;20495;-69
2021/11/29 08:14:42;;;;;;;10.93;4.85;;;2.10;99.90;;;;;;5054347;28;20045;-69
2021/11/29 08:17:08;;;;;;;8.02;5.10;;;2.10;99.90;;;;;;5054613;28;20025;-68
2021/11/29 08:19:33;;;;;;;12.48;6.47;;;2.10;99.90;;;;;;5054395;28;20434;-68
2021/11/29 08:21:59;;;;;;;11.30;6.35;;;2.20;99.90;;;;;;5053784;28;20025;-68
2021/11/29 08:24:25;;;;;;;9.82;6.72;;;2.20;99.90;;;;;;5054192;28;20108;-68
2021/11/29 08:26:50;;;;;;;11.13;6.28;;;2.20;99.90;;;;;;5054496;28;20107;-68
2021/11/29 08:29:16;;;;;;;10.80;6.93;;;2.20;99.90;;;;;;5052914;28;20400;-68
2021/11/29 08:31:42;;;;;;;10.38;6.55;;;2.30;99.90;;;;;;5054127;28;20037;-68
2021/11/29 08:34:08;;;;;;;9.45;6.07;;;2.30;99.90;;;;;;5054002;28;20032;-68
2021/11/29 08:36:34;;;;;;;11.07;6.70;;;2.30;99.90;;;;;;5053408;28;20021;-69
2021/11/29 08:39:00;;;;;;;11.50;6.22;;;2.40;99.90;;;;;;5053988;28;20387;-69
2021/11/29 08:41:27;;;;;;;10.27;5.30;;;2.40;99.90;;;;;;5053952;28;20017;-69
2021/11/29 08:43:53;;;;;;;9.38;6.35;;;2.50;99.90;;;;;;5053827;28;20021;-69
2021/11/29 08:46:19;;;;;;;10.68;6.30;;;2.50;99.90;;;;;;5053856;28;20075;-69
2021/11/29 08:48:45;;;;;;;11.63;6.70;;;2.60;99.90;;;;;;5053506;28;20036;-69
2021/11/29 08:51:10;;;;;;;8.73;6.47;;;2.50;99.90;;;;;;5053773;28;20021;-69
2021/11/29 08:53:38;;;;;;;8.57;5.63;;;2.60;99.90;;;;;;5053661;28;20029;-69
2021/11/29 08:56:04;;;;;;;9.95;6.18;;;2.60;99.90;;;;;;5053661;28;20028;-69
2021/11/29 08:58:29;;;;;;;12.20;6.60;;;2.50;99.90;;;;;;5053804;28;20021;-69
2021/11/29 09:00:56;;;;;;;7.60;5.43;;;2.50;99.90;;;;;;5053129;28;20025;-68
2021/11/29 09:03:22;;;;;;;14.00;6.05;;;2.60;99.90;;;;;;5053840;28;20028;-69
2021/11/29 09:05:49;;;;;;;10.27;6.03;;;2.60;99.90;;;;;;5053761;28;20365;-69
2021/11/29 09:08:15;;;;;;;7.78;5.82;;;2.60;99.90;;;;;;5053504;28;20029;-69
2021/11/29 09:10:43;;;;;;;7.22;4.80;;;2.70;99.90;;;;;;5054018;28;20372;-69
2021/11/29 09:13:08;;;;;;;8.27;5.22;;;2.80;99.90;;;;;;5052664;28;20032;-68
2021/11/29 09:15:34;;;;;;;8.23;5.38;;;2.80;99.90;;;;;;5052568;28;20036;-68
2021/11/29 09:18:00;;;;;;;12.35;4.85;;;2.90;99.90;;;;;;5053356;28;20021;-68
2021/11/29 09:20:27;;;;;;;10.95;4.15;;;2.90;99.90;;;;;;5053595;28;20029;-68
2021/11/29 09:22:54;;;;;;;6.32;3.65;;;2.90;99.90;;;;;;5053583;28;20025;-68
2021/11/29 09:25:20;;;;;;;10.38;4.53;;;2.90;99.90;;;;;;5053362;28;20017;-69
2021/11/29 09:27:46;;;;;;;6.20;4.50;;;2.80;99.90;;;;;;5052767;28;20033;-69
2021/11/29 09:30:14;;;;;;;7.85;4.18;;;2.80;99.90;;;;;;5053198;28;20120;-69
2021/11/29 09:32:40;;;;;;;10.20;4.00;;;2.80;99.90;;;;;;5053139;28;20028;-69
2021/11/29 09:35:09;;;;;;;6.32;4.32;;;2.80;99.90;;;;;;5053055;28;20074;-69
2021/11/29 09:37:36;;;;;;;7.78;4.72;;;2.80;99.90;;;;;;5052530;28;20496;-69
2021/11/29 09:40:05;;;;;;;10.10;5.80;;;2.80;99.90;;;;;;5053101;28;20025;-69
2021/11/29 09:42:30;;;;;;;10.10;4.75;;;2.80;99.90;;;;;;5054449;28;20024;-68
2021/11/29 09:44:56;;;;;;;8.70;4.53;;;2.80;99.90;;;;;;5053717;28;20022;-69
2021/11/29 09:47:22;;;;;;;7.47;4.90;;;2.90;99.90;;;;;;5053557;28;20507;-69
2021/11/29 09:49:50;;;;;;;11.07;4.47;;;3.00;99.90;;;;;;5053286;28;20048;-69
2021/11/29 09:52:15;;;;;;;7.35;5.18;;;3.10;99.90;;;;;;5052361;28;20021;-69
2021/11/29 09:54:43;;;;;;;6.68;5.07;;;3.10;99.90;;;;;;5053386;28;20075;-69
2021/11/29 09:57:09;;;;;;;9.85;6.40;;;3.10;99.90;;;;;;5052883;28;20033;-69
2021/11/29 09:59:35;;;;;;;8.82;5.38;;;3.00;99.90;;;;;;5068318;28;20060;-68
2021/11/29 10:02:00;;;;;;;10.07;4.78;;;3.00;99.90;;;;;;5053143;28;20056;-68
2021/11/29 10:04:26;;;;;;;11.80;5.45;;;3.00;99.90;;;;;;5052552;28;20068;-68
2021/11/29 10:07:01;;;;;;;9.10;4.45;;;3.00;99.90;;;;;;5053115;28;20441;-69
2021/11/29 10:09:36;;;;;;;7.78;4.60;;;2.90;99.90;;;;;;5052792;28;20055;-69
2021/11/29 10:12:10;;;;;;;7.15;4.70;;;2.90;99.90;;;;;;5052243;28;20027;-69
2021/11/29 10:14:37;;;;;;;6.97;5.05;;;3.00;99.90;;;;;;5052700;28;20037;-69
2021/11/29 10:17:03;;;;;;;14.75;5.53;;;3.00;99.90;;;;;;5052556;28;20079;-68
2021/11/29 10:19:31;;;;;;;10.05;5.20;;;2.90;99.90;;;;;;5052713;28;20031;-69
2021/11/29 10:22:18;;;;;;;16.88;5.25;;;2.90;99.90;;;;;;5052982;28;20035;-68
2021/11/29 10:24:45;;;;;;;10.57;4.80;;;2.90;99.90;;;;;;5052775;28;20103;-68
2021/11/29 10:27:11;;;;;;;8.52;4.90;;;3.00;99.90;;;;;;5056484;28;20053;-69
2021/11/29 10:29:38;;;;;;;14.82;4.90;;;3.10;99.90;;;;;;5056462;28;20113;-69
2021/11/29 10:32:04;;;;;;;12.70;5.40;;;3.10;99.90;;;;;;5057908;28;20021;-68
2021/11/29 10:34:32;;;;;;;10.43;5.05;;;3.10;99.90;;;;;;5056037;28;20060;-69
2021/11/29 10:37:03;;;;;;;15.25;5.65;;;3.10;99.90;;;;;;5056973;28;20107;-68
2021/11/29 10:39:51;;;;;;;13.32;6.15;;;3.10;99.90;;;;;;5076584;28;20016;-69
2021/11/29 10:42:16;;;;;;;11.73;5.30;;;3.10;99.90;;;;;;5068496;28;20040;-69
2021/11/29 10:44:44;;;;;;;8.77;4.80;;;3.00;99.90;;;;;;5056383;28;20024;-69
2021/11/29 10:47:18;;;;;;;9.70;4.90;;;3.00;99.90;;;;;;5055614;28;20477;-68
2021/11/29 10:49:53;;;;;;;10.65;4.57;;;3.10;99.90;;;;;;5056266;28;20025;-68
2021/11/29 10:52:23;;;;;;;6.55;3.88;;;3.10;99.90;;;;;;5075252;28;20036;-68
2021/11/29 10:54:49;;;;;;;6.35;4.03;;;3.10;99.90;;;;;;5076102;28;20035;-69
2021/11/29 10:57:16;;;;;;;9.40;4.40;;;3.10;99.90;;;;;;5075391;28;20543;-69
2021/11/29 10:59:44;;;;;;;9.15;4.50;;;3.00;99.90;;;;;;5075956;28;20510;-69
2021/11/29 11:02:13;;;;;;;7.10;4.43;;;3.10;99.90;;;;;;5076113;28;20044;-69
2021/11/29 11:04:43;;;;;;;11.40;4.65;;;3.20;99.90;;;;;;5061948;28;20025;-69
2021/11/29 11:07:20;;;;;;;9.40;4.57;;;3.40;99.90;;;;;;5055624;28;20033;-69
2021/11/29 11:09:54;;;;;;;6.63;4.25;;;3.60;99.90;;;;;;5054569;28;20055;-68
2021/11/29 11:12:22;;;;;;;11.65;5.00;;;3.70;99.90;;;;;;5056303;28;20115;-69
2021/11/29 11:14:53;;;;;;;5.72;3.63;;;3.70;99.90;;;;;;5081603;23;20040;-76
2021/11/29 11:17:21;;;;;;;13.75;4.72;;;3.60;99.90;;;;;;5075878;28;20020;-76
2021/11/29 11:19:52;;;;;;;12.07;4.57;;;3.50;99.90;;;;;;5075984;28;20028;-76
2021/11/29 11:22:39;;;;;;;8.50;3.75;;;3.50;99.90;;;;;;5074049;28;20063;-76
2021/11/29 11:25:19;;;;;;;9.90;3.63;;;3.50;99.90;;;;;;5070844;28;20024;-76
2021/11/29 11:27:52;;;;;;;10.55;3.70;;;3.40;99.90;;;;;;5075444;28;20060;-76
2021/11/29 11:30:19;;;;;;;13.43;4.25;;;3.30;99.90;;;;;;5075306;28;20025;-76
2021/11/29 11:32:56;;;;;;;11.35;4.55;;;3.30;99.90;;;;;;5062678;28;20361;-76
2021/11/29 11:35:31;;;;;;;8.75;4.28;;;3.40;99.90;;;;;;5055341;28;20111;-76
2021/11/29 11:38:11;;;;;;;6.03;3.40;;;3.40;99.90;;;;;;5054533;28;20067;-76
2021/11/29 11:40:40;;;;;;;7.57;3.65;;;3.30;99.90;;;;;;5055476;28;20017;-76
2021/11/29 11:43:08;;;;;;;11.68;4.53;;;3.30;99.90;;;;;;5054614;28;20443;-76
2021/11/29 11:45:36;;;;;;;6.55;3.60;;;3.30;99.90;;;;;;5055202;28;20025;-76
2021/11/29 11:48:04;;;;;;;11.07;3.88;;;3.40;99.90;;;;;;5055042;28;20033;-76
2021/11/29 11:50:37;;;;;;;8.27;4.35;;;3.50;99.90;;;;;;5070449;28;20500;-76
2021/11/29 11:53:05;;;;;;;9.68;4.05;;;3.50;99.90;;;;;;5069221;28;20025;-76
2021/11/29 11:55:34;;;;;;;9.85;3.65;;;3.50;99.90;;;;;;5054591;28;20032;-75
2021/11/29 11:58:04;;;;;;;12.82;3.63;;;3.50;99.90;;;;;;5064439;28;20056;-76
2021/11/29 12:00:40;;;;;;;6.05;3.50;;;3.60;99.90;;;;;;5074812;28;20027;-76
2021/11/29 12:03:10;;;;;;;8.25;3.88;;;3.60;99.90;;;;;;5051374;28;20564;-76
2021/11/29 12:05:53;;;;;;;10.43;3.40;;;3.50;99.90;;;;;;5034956;28;20025;-76
2021/11/29 12:08:34;;;;;;;7.60;3.72;;;3.70;99.90;;;;;;5057646;28;20078;-76
2021/11/29 12:11:01;;;;;;;6.72;3.75;;;3.80;99.90;;;;;;5074278;28;20020;-76
2021/11/29 12:13:27;;;;;;;5.13;2.47;;;3.70;99.90;;;;;;5065933;28;20119;-76
2021/11/29 12:15:56;;;;;;;7.60;3.60;;;3.80;99.90;;;;;;5065404;28;20033;-76
2021/11/29 12:18:39;;;;;;;9.27;3.10;;;3.80;99.90;;;;;;5054297;28;20129;-76
2021/11/29 12:21:27;;;;;;;7.88;4.50;;;3.90;99.90;;;;;;5034493;28;20028;-76
2021/11/29 12:24:04;;;;;;;12.32;3.75;;;3.80;99.90;;;;;;5067659;28;20112;-76
2021/11/29 12:26:45;;;;;;;15.45;3.50;;;3.70;99.90;;;;;;5054570;28;20083;-76
2021/11/29 12:29:23;;;;;;;10.18;3.42;;;3.50;99.90;;;;;;5069529;28;20028;-76
2021/11/29 12:32:10;;;;;;;7.43;3.22;;;3.40;99.90;;;;;;5068381;28;20108;-76
2021/11/29 12:34:46;;;;;;;8.40;3.33;;;3.50;99.90;;;;;;5053596;28;20488;-76
2021/11/29 12:37:32;;;;;;;8.73;3.13;;;3.80;99.90;;;;;;5055402;28;20111;-76
2021/11/29 12:40:07;;;;;;;11.82;3.53;;;3.90;99.90;;;;;;5073247;28;20036;-76
2021/11/29 12:42:32;;;;;;;8.23;3.80;;;3.80;99.90;;;;;;5074230;28;20023;-76
2021/11/29 12:45:04;;;;;;;8.35;4.13;;;3.80;99.90;;;;;;5073899;28;20104;-76